This is the latest recevied weather packets stored in our database for station/object KJ5MET. If no packets are shown the sender has not sent any weather packets the latest 10 day(s).
| Time | Temp. | Humidity | Pressure | Rain* | Wind** | Luminosity | Snow |
|---|---|---|---|---|---|---|---|
| 1787364595 | 22.78° C | 98% | 1013.2 hPa | 0.76 mm | - | - | - |
| 1787364275 | 22.78° C | 98% | 1013.2 hPa | 1.78 mm | - | - | - |
| 1787363970 | 22.78° C | 98% | 1013.2 hPa | 2.79 mm | - | - | - |
| 1787363666 | 22.78° C | 98% | 1013.2 hPa | 5.08 mm | - | - | - |
| 1787363362 | 22.78° C | 98% | 1013.2 hPa | 11.18 mm | - | - | - |
| 1787363056 | 22.78° C | 98% | 1013.2 hPa | 14.99 mm | - | - | - |
| 1787362735 | 22.78° C | 98% | 1013.2 hPa | 19.3 mm | - | - | - |
| 1787362431 | 22.78° C | 98% | 1013.5 hPa | 22.86 mm | - | - | - |
| 1787362125 | 22.78° C | 98% | 1013.5 hPa | 22.86 mm | - | - | - |
| 1787361820 | 23.33° C | 98% | 1014.6 hPa | 22.86 mm | - | - | - |
| 1787361515 | 23.33° C | 98% | 1014.6 hPa | 22.61 mm | - | - | - |
| 1787361210 | 23.33° C | 97% | 1015.2 hPa | 22.35 mm | - | - | - |
| 1787360905 | 23.33° C | 97% | 1015.2 hPa | 22.1 mm | - | - | - |
| 1787360600 | 23.33° C | 97% | 1015.2 hPa | 21.34 mm | - | - | - |
| 1787360295 | 23.33° C | 97% | 1016.3 hPa | 19.81 mm | - | - | - |
| 1787359991 | 23.33° C | 97% | 1016.3 hPa | 17.02 mm | - | - | - |
| 1787359685 | 23.33° C | 96% | 1014.2 hPa | 10.16 mm | - | - | - |
| 1787359365 | 23.33° C | 97% | 1014.2 hPa | 6.6 mm | - | - | - |
| 1787359061 | 23.89° C | 95% | 1014.2 hPa | 2.54 mm | - | - | - |
| 1787358757 | 25° C | 90% | 1013.2 hPa | 0 mm | - | - | - |
| 1787358442 | 27.78° C | 80% | 1013.2 hPa | 0 mm | - | - | - |
| 1787358137 | 30° C | 70% | 1011.5 hPa | 0 mm | - | - | - |
| 1787357830 | 34.44° C | 63% | 1011.5 hPa | 0 mm | - | - | - |
| 1787357511 | 35° C | 60% | 1011.2 hPa | 0 mm | - | - | - |
| 1787357205 | 35° C | 60% | 1011.2 hPa | 0 mm | - | - | - |
* Rain latest hour (hover to see other rain measurements)
** Current wind speed in m/s (hover to see current wind gust speed)